sensor_id;sensor_type;location;lat;lon;timestamp;P1;durP1;ratioP1;P2;durP2;ratioP2
4462;SDS011;2244;50.200;8.220;2024-01-30T00:00:47;33.63;;;12.90;;
4462;SDS011;2244;50.200;8.220;2024-01-30T00:03:15;34.80;;;14.10;;
4462;SDS011;2244;50.200;8.220;2024-01-30T00:05:43;30.30;;;12.30;;
4462;SDS011;2244;50.200;8.220;2024-01-30T00:08:10;32.60;;;12.80;;
4462;SDS011;2244;50.200;8.220;2024-01-30T00:10:38;33.43;;;13.00;;
4462;SDS011;2244;50.200;8.220;2024-01-30T00:13:05;32.43;;;12.60;;
4462;SDS011;2244;50.200;8.220;2024-01-30T00:15:34;31.10;;;12.70;;
4462;SDS011;2244;50.200;8.220;2024-01-30T00:18:01;32.70;;;13.03;;
4462;SDS011;2244;50.200;8.220;2024-01-30T00:20:29;32.17;;;12.37;;
4462;SDS011;2244;50.200;8.220;2024-01-30T00:22:56;33.87;;;12.37;;
4462;SDS011;2244;50.200;8.220;2024-01-30T00:25:23;33.27;;;13.40;;
4462;SDS011;2244;50.200;8.220;2024-01-30T00:27:51;34.20;;;13.77;;
4462;SDS011;2244;50.200;8.220;2024-01-30T00:30:19;33.77;;;13.70;;
4462;SDS011;2244;50.200;8.220;2024-01-30T00:32:47;34.50;;;14.40;;
4462;SDS011;2244;50.200;8.220;2024-01-30T00:35:14;37.93;;;15.00;;
4462;SDS011;2244;50.200;8.220;2024-01-30T00:37:42;34.50;;;14.63;;
4462;SDS011;2244;50.200;8.220;2024-01-30T00:42:42;35.83;;;14.50;;
4462;SDS011;2244;50.200;8.220;2024-01-30T00:45:18;35.57;;;14.73;;
4462;SDS011;2244;50.200;8.220;2024-01-30T00:47:42;36.17;;;14.63;;
4462;SDS011;2244;50.200;8.220;2024-01-30T00:50:09;36.67;;;14.97;;
4462;SDS011;2244;50.200;8.220;2024-01-30T00:52:37;35.40;;;14.20;;
4462;SDS011;2244;50.200;8.220;2024-01-30T00:55:05;36.30;;;14.33;;
4462;SDS011;2244;50.200;8.220;2024-01-30T00:57:35;33.40;;;13.77;;
4462;SDS011;2244;50.200;8.220;2024-01-30T01:00:03;34.37;;;14.10;;
4462;SDS011;2244;50.200;8.220;2024-01-30T01:02:32;33.07;;;13.20;;
4462;SDS011;2244;50.200;8.220;2024-01-30T01:04:59;34.60;;;12.80;;
4462;SDS011;2244;50.200;8.220;2024-01-30T01:07:27;31.87;;;11.90;;
4462;SDS011;2244;50.200;8.220;2024-01-30T01:09:54;31.60;;;12.00;;
4462;SDS011;2244;50.200;8.220;2024-01-30T01:12:22;31.10;;;11.80;;
4462;SDS011;2244;50.200;8.220;2024-01-30T01:14:49;32.37;;;11.70;;
4462;SDS011;2244;50.200;8.220;2024-01-30T01:17:17;33.63;;;11.93;;
4462;SDS011;2244;50.200;8.220;2024-01-30T01:19:45;32.10;;;11.60;;
4462;SDS011;2244;50.200;8.220;2024-01-30T01:22:12;31.30;;;12.60;;
4462;SDS011;2244;50.200;8.220;2024-01-30T01:24:40;34.47;;;11.47;;
4462;SDS011;2244;50.200;8.220;2024-01-30T01:27:07;33.33;;;12.77;;
4462;SDS011;2244;50.200;8.220;2024-01-30T01:29:35;31.30;;;12.03;;
4462;SDS011;2244;50.200;8.220;2024-01-30T01:32:02;31.70;;;12.20;;
4462;SDS011;2244;50.200;8.220;2024-01-30T01:34:30;29.30;;;11.00;;
4462;SDS011;2244;50.200;8.220;2024-01-30T01:36:57;30.37;;;11.60;;
4462;SDS011;2244;50.200;8.220;2024-01-30T01:39:25;34.93;;;11.23;;
4462;SDS011;2244;50.200;8.220;2024-01-30T01:41:52;34.27;;;10.77;;
4462;SDS011;2244;50.200;8.220;2024-01-30T01:44:20;29.77;;;10.60;;
4462;SDS011;2244;50.200;8.220;2024-01-30T01:46:47;30.10;;;11.00;;
4462;SDS011;2244;50.200;8.220;2024-01-30T01:49:15;32.30;;;10.70;;
4462;SDS011;2244;50.200;8.220;2024-01-30T01:51:43;30.50;;;10.30;;
4462;SDS011;2244;50.200;8.220;2024-01-30T01:54:12;31.10;;;10.73;;
4462;SDS011;2244;50.200;8.220;2024-01-30T01:56:40;33.73;;;11.10;;
4462;SDS011;2244;50.200;8.220;2024-01-30T01:59:08;28.83;;;10.17;;
4462;SDS011;2244;50.200;8.220;2024-01-30T02:01:36;28.70;;;9.83;;
4462;SDS011;2244;50.200;8.220;2024-01-30T02:04:06;33.27;;;11.60;;
4462;SDS011;2244;50.200;8.220;2024-01-30T02:06:34;29.60;;;10.30;;
4462;SDS011;2244;50.200;8.220;2024-01-30T02:09:02;29.10;;;9.40;;
4462;SDS011;2244;50.200;8.220;2024-01-30T02:11:31;29.00;;;9.77;;
4462;SDS011;2244;50.200;8.220;2024-01-30T02:14:02;28.93;;;8.93;;
4462;SDS011;2244;50.200;8.220;2024-01-30T02:16:27;27.60;;;9.67;;
4462;SDS011;2244;50.200;8.220;2024-01-30T02:18:56;29.20;;;9.50;;
4462;SDS011;2244;50.200;8.220;2024-01-30T02:21:24;31.30;;;9.93;;
4462;SDS011;2244;50.200;8.220;2024-01-30T02:23:51;32.83;;;10.20;;
4462;SDS011;2244;50.200;8.220;2024-01-30T02:26:19;32.17;;;9.40;;
4462;SDS011;2244;50.200;8.220;2024-01-30T02:28:47;27.80;;;9.40;;
4462;SDS011;2244;50.200;8.220;2024-01-30T02:31:14;29.03;;;9.40;;
4462;SDS011;2244;50.200;8.220;2024-01-30T02:33:42;28.80;;;9.30;;
4462;SDS011;2244;50.200;8.220;2024-01-30T02:36:09;31.03;;;9.97;;
4462;SDS011;2244;50.200;8.220;2024-01-30T02:38:37;29.30;;;9.60;;
4462;SDS011;2244;50.200;8.220;2024-01-30T02:41:04;28.33;;;9.90;;
4462;SDS011;2244;50.200;8.220;2024-01-30T02:43:32;29.30;;;9.60;;
4462;SDS011;2244;50.200;8.220;2024-01-30T02:45:59;30.93;;;10.60;;
4462;SDS011;2244;50.200;8.220;2024-01-30T02:48:27;29.83;;;9.60;;
4462;SDS011;2244;50.200;8.220;2024-01-30T02:50:55;32.70;;;9.50;;
4462;SDS011;2244;50.200;8.220;2024-01-30T02:53:23;29.10;;;9.10;;
4462;SDS011;2244;50.200;8.220;2024-01-30T02:55:51;31.60;;;10.00;;
4462;SDS011;2244;50.200;8.220;2024-01-30T02:58:18;29.40;;;8.93;;
4462;SDS011;2244;50.200;8.220;2024-01-30T03:00:46;28.77;;;8.87;;
4462;SDS011;2244;50.200;8.220;2024-01-30T03:03:13;29.50;;;9.03;;
4462;SDS011;2244;50.200;8.220;2024-01-30T03:05:41;30.13;;;9.80;;
4462;SDS011;2244;50.200;8.220;2024-01-30T03:08:09;27.67;;;9.17;;
4462;SDS011;2244;50.200;8.220;2024-01-30T03:10:36;30.40;;;10.00;;
4462;SDS011;2244;50.200;8.220;2024-01-30T03:13:04;30.10;;;9.60;;
4462;SDS011;2244;50.200;8.220;2024-01-30T03:15:32;30.70;;;9.83;;
4462;SDS011;2244;50.200;8.220;2024-01-30T03:17:59;31.37;;;9.90;;
4462;SDS011;2244;50.200;8.220;2024-01-30T03:20:27;30.83;;;10.13;;
4462;SDS011;2244;50.200;8.220;2024-01-30T03:22:55;31.33;;;10.53;;
4462;SDS011;2244;50.200;8.220;2024-01-30T03:25:22;33.57;;;9.60;;
4462;SDS011;2244;50.200;8.220;2024-01-30T03:27:50;32.07;;;9.50;;
4462;SDS011;2244;50.200;8.220;2024-01-30T03:30:18;30.40;;;10.53;;
4462;SDS011;2244;50.200;8.220;2024-01-30T03:32:48;31.67;;;9.77;;
4462;SDS011;2244;50.200;8.220;2024-01-30T03:35:16;31.13;;;9.80;;
4462;SDS011;2244;50.200;8.220;2024-01-30T03:37:44;32.27;;;10.50;;
4462;SDS011;2244;50.200;8.220;2024-01-30T03:40:11;29.67;;;10.47;;
4462;SDS011;2244;50.200;8.220;2024-01-30T03:42:39;28.60;;;10.00;;
4462;SDS011;2244;50.200;8.220;2024-01-30T03:45:07;32.73;;;9.90;;
4462;SDS011;2244;50.200;8.220;2024-01-30T03:47:34;29.50;;;9.80;;
4462;SDS011;2244;50.200;8.220;2024-01-30T03:50:02;27.73;;;9.50;;
4462;SDS011;2244;50.200;8.220;2024-01-30T03:52:31;30.73;;;10.20;;
4462;SDS011;2244;50.200;8.220;2024-01-30T03:54:58;30.60;;;10.30;;
4462;SDS011;2244;50.200;8.220;2024-01-30T03:57:26;31.03;;;10.13;;
4462;SDS011;2244;50.200;8.220;2024-01-30T03:59:54;29.17;;;8.93;;
4462;SDS011;2244;50.200;8.220;2024-01-30T04:02:21;29.67;;;9.93;;
4462;SDS011;2244;50.200;8.220;2024-01-30T04:04:49;28.90;;;9.50;;
4462;SDS011;2244;50.200;8.220;2024-01-30T04:07:16;27.87;;;9.37;;
4462;SDS011;2244;50.200;8.220;2024-01-30T04:09:45;28.33;;;9.27;;
4462;SDS011;2244;50.200;8.220;2024-01-30T04:12:13;30.37;;;10.27;;
4462;SDS011;2244;50.200;8.220;2024-01-30T04:14:40;30.67;;;10.37;;
4462;SDS011;2244;50.200;8.220;2024-01-30T04:17:08;29.80;;;9.53;;
4462;SDS011;2244;50.200;8.220;2024-01-30T04:19:38;31.47;;;10.13;;
4462;SDS011;2244;50.200;8.220;2024-01-30T04:22:06;30.80;;;11.53;;
4462;SDS011;2244;50.200;8.220;2024-01-30T04:24:33;28.63;;;9.40;;
4462;SDS011;2244;50.200;8.220;2024-01-30T04:27:01;30.37;;;9.90;;
4462;SDS011;2244;50.200;8.220;2024-01-30T04:29:28;31.60;;;10.13;;
4462;SDS011;2244;50.200;8.220;2024-01-30T04:31:56;30.67;;;10.33;;
4462;SDS011;2244;50.200;8.220;2024-01-30T04:34:24;29.87;;;10.17;;
4462;SDS011;2244;50.200;8.220;2024-01-30T04:36:51;29.40;;;9.60;;
4462;SDS011;2244;50.200;8.220;2024-01-30T04:39:19;29.70;;;10.20;;
4462;SDS011;2244;50.200;8.220;2024-01-30T04:41:46;38.47;;;11.30;;
4462;SDS011;2244;50.200;8.220;2024-01-30T04:44:14;30.80;;;10.90;;
4462;SDS011;2244;50.200;8.220;2024-01-30T04:46:42;30.37;;;10.77;;
4462;SDS011;2244;50.200;8.220;2024-01-30T04:49:09;34.40;;;10.67;;
4462;SDS011;2244;50.200;8.220;2024-01-30T04:51:37;30.33;;;10.33;;
4462;SDS011;2244;50.200;8.220;2024-01-30T04:54:04;29.73;;;10.73;;
4462;SDS011;2244;50.200;8.220;2024-01-30T04:56:32;30.80;;;10.80;;
4462;SDS011;2244;50.200;8.220;2024-01-30T04:59:00;30.13;;;10.37;;
4462;SDS011;2244;50.200;8.220;2024-01-30T05:01:27;33.93;;;11.00;;
4462;SDS011;2244;50.200;8.220;2024-01-30T05:03:55;31.70;;;10.20;;
4462;SDS011;2244;50.200;8.220;2024-01-30T05:06:25;31.30;;;11.50;;
4462;SDS011;2244;50.200;8.220;2024-01-30T05:08:53;31.33;;;10.70;;
4462;SDS011;2244;50.200;8.220;2024-01-30T05:11:21;32.00;;;10.70;;
4462;SDS011;2244;50.200;8.220;2024-01-30T05:13:48;32.00;;;11.50;;
4462;SDS011;2244;50.200;8.220;2024-01-30T05:16:15;31.67;;;11.30;;
4462;SDS011;2244;50.200;8.220;2024-01-30T05:18:43;30.40;;;10.60;;
4462;SDS011;2244;50.200;8.220;2024-01-30T05:21:11;36.80;;;11.70;;
4462;SDS011;2244;50.200;8.220;2024-01-30T05:23:38;33.80;;;12.03;;
4462;SDS011;2244;50.200;8.220;2024-01-30T05:26:06;33.20;;;10.47;;
4462;SDS011;2244;50.200;8.220;2024-01-30T05:28:34;32.97;;;11.33;;
4462;SDS011;2244;50.200;8.220;2024-01-30T05:31:01;31.70;;;11.07;;
4462;SDS011;2244;50.200;8.220;2024-01-30T05:33:29;34.20;;;12.20;;
4462;SDS011;2244;50.200;8.220;2024-01-30T05:35:56;35.30;;;11.70;;
4462;SDS011;2244;50.200;8.220;2024-01-30T05:38:24;35.57;;;11.57;;
4462;SDS011;2244;50.200;8.220;2024-01-30T05:40:51;31.47;;;11.10;;
4462;SDS011;2244;50.200;8.220;2024-01-30T05:43:19;32.90;;;11.70;;
4462;SDS011;2244;50.200;8.220;2024-01-30T05:45:46;32.83;;;11.60;;
4462;SDS011;2244;50.200;8.220;2024-01-30T05:48:14;33.13;;;10.60;;
4462;SDS011;2244;50.200;8.220;2024-01-30T05:50:41;35.80;;;11.80;;
4462;SDS011;2244;50.200;8.220;2024-01-30T05:53:09;32.37;;;12.30;;
4462;SDS011;2244;50.200;8.220;2024-01-30T05:55:36;31.33;;;11.63;;
4462;SDS011;2244;50.200;8.220;2024-01-30T05:58:04;36.13;;;10.77;;
4462;SDS011;2244;50.200;8.220;2024-01-30T06:00:31;38.60;;;12.00;;
4462;SDS011;2244;50.200;8.220;2024-01-30T06:02:59;36.13;;;12.63;;
4462;SDS011;2244;50.200;8.220;2024-01-30T06:05:26;29.73;;;11.00;;
4462;SDS011;2244;50.200;8.220;2024-01-30T06:07:54;33.47;;;11.50;;
4462;SDS011;2244;50.200;8.220;2024-01-30T06:10:22;34.50;;;12.33;;
4462;SDS011;2244;50.200;8.220;2024-01-30T06:12:49;36.33;;;12.30;;
4462;SDS011;2244;50.200;8.220;2024-01-30T06:15:17;30.70;;;10.43;;
4462;SDS011;2244;50.200;8.220;2024-01-30T06:17:44;32.50;;;12.17;;
4462;SDS011;2244;50.200;8.220;2024-01-30T06:20:12;32.10;;;12.00;;
4462;SDS011;2244;50.200;8.220;2024-01-30T06:22:39;31.20;;;12.13;;
4462;SDS011;2244;50.200;8.220;2024-01-30T06:25:07;38.63;;;12.03;;
4462;SDS011;2244;50.200;8.220;2024-01-30T06:27:34;34.20;;;12.73;;
4462;SDS011;2244;50.200;8.220;2024-01-30T06:30:02;32.53;;;13.30;;
4462;SDS011;2244;50.200;8.220;2024-01-30T06:32:30;33.87;;;12.00;;
4462;SDS011;2244;50.200;8.220;2024-01-30T06:34:59;34.20;;;12.30;;
4462;SDS011;2244;50.200;8.220;2024-01-30T06:37:26;35.07;;;13.10;;
4462;SDS011;2244;50.200;8.220;2024-01-30T06:39:54;31.97;;;12.87;;
4462;SDS011;2244;50.200;8.220;2024-01-30T06:42:21;31.90;;;12.30;;
4462;SDS011;2244;50.200;8.220;2024-01-30T06:44:49;32.90;;;13.00;;
4462;SDS011;2244;50.200;8.220;2024-01-30T06:47:16;33.03;;;13.00;;
4462;SDS011;2244;50.200;8.220;2024-01-30T06:49:44;32.80;;;13.30;;
4462;SDS011;2244;50.200;8.220;2024-01-30T06:52:11;32.53;;;12.50;;
4462;SDS011;2244;50.200;8.220;2024-01-30T06:54:39;33.70;;;13.83;;
4462;SDS011;2244;50.200;8.220;2024-01-30T06:57:07;32.63;;;13.20;;
4462;SDS011;2244;50.200;8.220;2024-01-30T06:59:38;32.93;;;11.70;;
4462;SDS011;2244;50.200;8.220;2024-01-30T07:02:10;35.10;;;12.33;;
4462;SDS011;2244;50.200;8.220;2024-01-30T07:04:38;33.03;;;12.33;;
4462;SDS011;2244;50.200;8.220;2024-01-30T07:07:08;39.53;;;14.37;;
4462;SDS011;2244;50.200;8.220;2024-01-30T07:09:37;32.17;;;12.50;;
4462;SDS011;2244;50.200;8.220;2024-01-30T07:12:05;34.63;;;12.63;;
4462;SDS011;2244;50.200;8.220;2024-01-30T07:14:33;35.30;;;13.27;;
4462;SDS011;2244;50.200;8.220;2024-01-30T07:17:00;37.37;;;14.03;;
4462;SDS011;2244;50.200;8.220;2024-01-30T07:19:28;34.93;;;14.30;;
4462;SDS011;2244;50.200;8.220;2024-01-30T07:21:55;34.83;;;12.73;;
4462;SDS011;2244;50.200;8.220;2024-01-30T07:24:23;32.23;;;13.33;;
4462;SDS011;2244;50.200;8.220;2024-01-30T07:26:50;34.80;;;13.30;;
4462;SDS011;2244;50.200;8.220;2024-01-30T07:29:18;32.50;;;13.00;;
4462;SDS011;2244;50.200;8.220;2024-01-30T07:31:45;32.77;;;12.87;;
4462;SDS011;2244;50.200;8.220;2024-01-30T07:34:13;35.67;;;13.20;;
4462;SDS011;2244;50.200;8.220;2024-01-30T07:36:41;34.97;;;12.90;;
4462;SDS011;2244;50.200;8.220;2024-01-30T07:39:08;30.67;;;11.90;;
4462;SDS011;2244;50.200;8.220;2024-01-30T07:41:37;33.10;;;13.13;;
4462;SDS011;2244;50.200;8.220;2024-01-30T07:44:04;32.00;;;12.20;;
4462;SDS011;2244;50.200;8.220;2024-01-30T07:46:31;34.07;;;12.60;;
4462;SDS011;2244;50.200;8.220;2024-01-30T07:48:59;31.90;;;12.70;;
4462;SDS011;2244;50.200;8.220;2024-01-30T07:51:27;31.80;;;11.10;;
4462;SDS011;2244;50.200;8.220;2024-01-30T07:53:55;31.07;;;11.60;;
4462;SDS011;2244;50.200;8.220;2024-01-30T07:56:23;38.90;;;11.40;;
4462;SDS011;2244;50.200;8.220;2024-01-30T07:58:52;32.07;;;10.70;;
4462;SDS011;2244;50.200;8.220;2024-01-30T08:01:19;29.67;;;10.83;;
4462;SDS011;2244;50.200;8.220;2024-01-30T08:03:47;31.63;;;10.70;;
4462;SDS011;2244;50.200;8.220;2024-01-30T08:06:14;30.20;;;11.10;;
4462;SDS011;2244;50.200;8.220;2024-01-30T08:08:42;28.13;;;9.87;;
4462;SDS011;2244;50.200;8.220;2024-01-30T08:11:20;33.63;;;10.20;;
4462;SDS011;2244;50.200;8.220;2024-01-30T08:13:49;31.30;;;11.03;;
4462;SDS011;2244;50.200;8.220;2024-01-30T08:16:17;28.00;;;10.17;;
4462;SDS011;2244;50.200;8.220;2024-01-30T08:18:44;29.50;;;10.87;;
4462;SDS011;2244;50.200;8.220;2024-01-30T08:21:13;29.73;;;10.37;;
4462;SDS011;2244;50.200;8.220;2024-01-30T08:23:40;28.10;;;10.60;;
4462;SDS011;2244;50.200;8.220;2024-01-30T08:26:08;28.20;;;10.10;;
4462;SDS011;2244;50.200;8.220;2024-01-30T08:28:35;29.80;;;10.83;;
4462;SDS011;2244;50.200;8.220;2024-01-30T08:31:05;33.37;;;10.50;;
4462;SDS011;2244;50.200;8.220;2024-01-30T08:33:32;31.03;;;9.80;;
4462;SDS011;2244;50.200;8.220;2024-01-30T08:35:59;27.80;;;9.93;;
4462;SDS011;2244;50.200;8.220;2024-01-30T08:38:27;28.87;;;9.63;;
4462;SDS011;2244;50.200;8.220;2024-01-30T08:40:55;27.70;;;10.07;;
4462;SDS011;2244;50.200;8.220;2024-01-30T08:43:23;28.20;;;9.50;;
4462;SDS011;2244;50.200;8.220;2024-01-30T08:45:50;28.27;;;8.83;;
4462;SDS011;2244;50.200;8.220;2024-01-30T08:48:18;29.37;;;9.40;;
4462;SDS011;2244;50.200;8.220;2024-01-30T08:50:45;28.33;;;9.13;;
4462;SDS011;2244;50.200;8.220;2024-01-30T08:53:13;27.97;;;8.80;;
4462;SDS011;2244;50.200;8.220;2024-01-30T08:55:40;29.17;;;8.70;;
4462;SDS011;2244;50.200;8.220;2024-01-30T08:58:08;26.67;;;8.50;;
4462;SDS011;2244;50.200;8.220;2024-01-30T09:00:36;27.60;;;8.37;;
4462;SDS011;2244;50.200;8.220;2024-01-30T09:03:04;26.17;;;8.27;;
4462;SDS011;2244;50.200;8.220;2024-01-30T09:05:31;32.37;;;8.30;;
4462;SDS011;2244;50.200;8.220;2024-01-30T09:07:59;26.63;;;7.77;;
4462;SDS011;2244;50.200;8.220;2024-01-30T09:10:26;28.03;;;8.60;;
4462;SDS011;2244;50.200;8.220;2024-01-30T09:12:55;27.87;;;7.50;;
4462;SDS011;2244;50.200;8.220;2024-01-30T09:15:26;28.17;;;7.30;;
4462;SDS011;2244;50.200;8.220;2024-01-30T09:17:53;28.20;;;7.57;;
4462;SDS011;2244;50.200;8.220;2024-01-30T09:22:57;26.93;;;7.70;;
4462;SDS011;2244;50.200;8.220;2024-01-30T09:25:24;27.77;;;7.57;;
4462;SDS011;2244;50.200;8.220;2024-01-30T09:27:52;25.70;;;7.40;;
4462;SDS011;2244;50.200;8.220;2024-01-30T09:30:20;25.40;;;6.90;;
4462;SDS011;2244;50.200;8.220;2024-01-30T09:32:48;25.37;;;7.17;;
4462;SDS011;2244;50.200;8.220;2024-01-30T09:35:18;26.20;;;7.67;;
4462;SDS011;2244;50.200;8.220;2024-01-30T09:37:46;29.77;;;8.17;;
4462;SDS011;2244;50.200;8.220;2024-01-30T09:40:14;27.20;;;7.67;;
4462;SDS011;2244;50.200;8.220;2024-01-30T09:42:43;28.33;;;7.70;;
4462;SDS011;2244;50.200;8.220;2024-01-30T09:45:12;25.27;;;6.80;;
4462;SDS011;2244;50.200;8.220;2024-01-30T09:47:42;28.90;;;7.30;;
4462;SDS011;2244;50.200;8.220;2024-01-30T09:50:13;25.30;;;7.13;;
4462;SDS011;2244;50.200;8.220;2024-01-30T09:52:47;25.63;;;6.90;;
4462;SDS011;2244;50.200;8.220;2024-01-30T09:55:10;26.47;;;7.70;;
4462;SDS011;2244;50.200;8.220;2024-01-30T09:57:38;30.37;;;8.50;;
4462;SDS011;2244;50.200;8.220;2024-01-30T10:02:38;25.97;;;6.90;;
4462;SDS011;2244;50.200;8.220;2024-01-30T10:05:07;27.10;;;7.57;;
4462;SDS011;2244;50.200;8.220;2024-01-30T10:07:35;28.40;;;7.33;;
4462;SDS011;2244;50.200;8.220;2024-01-30T10:10:05;28.37;;;7.63;;
4462;SDS011;2244;50.200;8.220;2024-01-30T10:12:33;25.30;;;7.17;;
4462;SDS011;2244;50.200;8.220;2024-01-30T10:15:00;26.90;;;6.63;;
4462;SDS011;2244;50.200;8.220;2024-01-30T10:17:28;27.97;;;7.30;;
4462;SDS011;2244;50.200;8.220;2024-01-30T10:20:09;29.50;;;8.10;;
4462;SDS011;2244;50.200;8.220;2024-01-30T10:22:37;26.07;;;7.33;;
4462;SDS011;2244;50.200;8.220;2024-01-30T10:25:05;26.33;;;7.60;;
4462;SDS011;2244;50.200;8.220;2024-01-30T10:27:34;26.00;;;7.50;;
4462;SDS011;2244;50.200;8.220;2024-01-30T10:30:01;25.93;;;7.63;;
4462;SDS011;2244;50.200;8.220;2024-01-30T10:32:39;27.30;;;7.57;;
4462;SDS011;2244;50.200;8.220;2024-01-30T10:35:09;28.83;;;7.97;;
4462;SDS011;2244;50.200;8.220;2024-01-30T10:37:37;25.17;;;7.33;;
4462;SDS011;2244;50.200;8.220;2024-01-30T10:42:47;25.67;;;7.03;;
4462;SDS011;2244;50.200;8.220;2024-01-30T10:45:16;29.07;;;7.90;;
4462;SDS011;2244;50.200;8.220;2024-01-30T10:47:40;27.40;;;7.97;;
4462;SDS011;2244;50.200;8.220;2024-01-30T10:50:10;27.17;;;7.90;;
4462;SDS011;2244;50.200;8.220;2024-01-30T10:52:38;27.60;;;7.97;;
4462;SDS011;2244;50.200;8.220;2024-01-30T10:55:06;29.20;;;8.10;;
4462;SDS011;2244;50.200;8.220;2024-01-30T10:57:34;28.00;;;7.87;;
4462;SDS011;2244;50.200;8.220;2024-01-30T11:00:09;28.00;;;7.80;;
4462;SDS011;2244;50.200;8.220;2024-01-30T11:02:43;28.50;;;7.43;;
4462;SDS011;2244;50.200;8.220;2024-01-30T11:05:06;26.60;;;8.00;;
4462;SDS011;2244;50.200;8.220;2024-01-30T11:07:35;25.30;;;7.10;;
4462;SDS011;2244;50.200;8.220;2024-01-30T11:10:03;28.00;;;8.00;;
4462;SDS011;2244;50.200;8.220;2024-01-30T11:12:31;28.50;;;8.30;;
4462;SDS011;2244;50.200;8.220;2024-01-30T11:15:05;26.77;;;8.20;;
4462;SDS011;2244;50.200;8.220;2024-01-30T11:20:21;27.93;;;8.70;;
4462;SDS011;2244;50.200;8.220;2024-01-30T11:22:50;31.40;;;9.00;;
4462;SDS011;2244;50.200;8.220;2024-01-30T11:25:21;28.30;;;9.10;;
4462;SDS011;2244;50.200;8.220;2024-01-30T11:27:53;29.00;;;8.27;;
4462;SDS011;2244;50.200;8.220;2024-01-30T11:30:30;25.60;;;7.77;;
4462;SDS011;2244;50.200;8.220;2024-01-30T11:33:00;28.60;;;8.10;;
4462;SDS011;2244;50.200;8.220;2024-01-30T11:35:33;28.60;;;7.77;;
4462;SDS011;2244;50.200;8.220;2024-01-30T11:40:33;28.93;;;8.30;;
4462;SDS011;2244;50.200;8.220;2024-01-30T11:43:03;27.17;;;7.43;;
4462;SDS011;2244;50.200;8.220;2024-01-30T11:45:32;30.13;;;7.50;;
4462;SDS011;2244;50.200;8.220;2024-01-30T11:47:59;26.73;;;7.50;;
4462;SDS011;2244;50.200;8.220;2024-01-30T11:50:38;27.40;;;7.50;;
4462;SDS011;2244;50.200;8.220;2024-01-30T11:53:06;26.80;;;7.33;;
4462;SDS011;2244;50.200;8.220;2024-01-30T11:55:33;27.57;;;7.87;;
4462;SDS011;2244;50.200;8.220;2024-01-30T11:58:03;27.53;;;7.93;;
4462;SDS011;2244;50.200;8.220;2024-01-30T12:00:31;27.60;;;7.73;;
4462;SDS011;2244;50.200;8.220;2024-01-30T12:03:01;31.43;;;8.33;;
4462;SDS011;2244;50.200;8.220;2024-01-30T12:05:29;27.93;;;8.07;;
4462;SDS011;2244;50.200;8.220;2024-01-30T12:07:57;28.50;;;8.67;;
4462;SDS011;2244;50.200;8.220;2024-01-30T12:10:29;26.93;;;7.40;;
4462;SDS011;2244;50.200;8.220;2024-01-30T12:12:58;28.90;;;7.90;;
4462;SDS011;2244;50.200;8.220;2024-01-30T12:15:27;29.73;;;8.33;;
4462;SDS011;2244;50.200;8.220;2024-01-30T12:18:03;29.20;;;8.27;;
4462;SDS011;2244;50.200;8.220;2024-01-30T12:22:56;27.77;;;8.27;;
4462;SDS011;2244;50.200;8.220;2024-01-30T12:25:33;24.80;;;7.10;;
4462;SDS011;2244;50.200;8.220;2024-01-30T12:28:01;25.70;;;6.97;;
4462;SDS011;2244;50.200;8.220;2024-01-30T12:30:28;27.80;;;7.60;;
4462;SDS011;2244;50.200;8.220;2024-01-30T12:32:56;26.47;;;6.90;;
4462;SDS011;2244;50.200;8.220;2024-01-30T12:35:26;27.13;;;6.77;;
4462;SDS011;2244;50.200;8.220;2024-01-30T12:37:56;32.20;;;7.60;;
4462;SDS011;2244;50.200;8.220;2024-01-30T12:40:24;26.90;;;7.60;;
4462;SDS011;2244;50.200;8.220;2024-01-30T12:42:53;28.50;;;7.20;;
4462;SDS011;2244;50.200;8.220;2024-01-30T12:45:29;27.20;;;6.80;;
4462;SDS011;2244;50.200;8.220;2024-01-30T12:47:57;28.83;;;7.77;;
4462;SDS011;2244;50.200;8.220;2024-01-30T12:50:25;26.63;;;6.73;;
4462;SDS011;2244;50.200;8.220;2024-01-30T12:52:52;25.93;;;6.03;;
4462;SDS011;2244;50.200;8.220;2024-01-30T12:55:20;26.87;;;6.80;;
4462;SDS011;2244;50.200;8.220;2024-01-30T12:57:49;27.53;;;6.70;;
4462;SDS011;2244;50.200;8.220;2024-01-30T13:00:17;28.40;;;6.63;;
4462;SDS011;2244;50.200;8.220;2024-01-30T13:02:44;27.07;;;7.43;;
4462;SDS011;2244;50.200;8.220;2024-01-30T13:05:14;27.20;;;7.80;;
4462;SDS011;2244;50.200;8.220;2024-01-30T13:07:42;27.40;;;8.00;;
4462;SDS011;2244;50.200;8.220;2024-01-30T13:10:10;29.67;;;7.80;;
4462;SDS011;2244;50.200;8.220;2024-01-30T13:12:38;27.90;;;7.20;;
4462;SDS011;2244;50.200;8.220;2024-01-30T13:15:05;29.43;;;8.20;;
4462;SDS011;2244;50.200;8.220;2024-01-30T13:17:39;28.50;;;7.37;;
4462;SDS011;2244;50.200;8.220;2024-01-30T13:20:08;26.50;;;7.60;;
4462;SDS011;2244;50.200;8.220;2024-01-30T13:22:37;30.30;;;7.80;;
4462;SDS011;2244;50.200;8.220;2024-01-30T13:25:05;27.90;;;8.00;;
4462;SDS011;2244;50.200;8.220;2024-01-30T13:27:33;29.13;;;8.30;;
4462;SDS011;2244;50.200;8.220;2024-01-30T13:30:01;27.47;;;8.63;;
4462;SDS011;2244;50.200;8.220;2024-01-30T13:32:28;29.00;;;8.67;;
4462;SDS011;2244;50.200;8.220;2024-01-30T13:34:56;30.50;;;9.00;;
4462;SDS011;2244;50.200;8.220;2024-01-30T13:37:24;30.13;;;9.27;;
4462;SDS011;2244;50.200;8.220;2024-01-30T13:39:51;27.80;;;8.47;;
4462;SDS011;2244;50.200;8.220;2024-01-30T13:42:19;28.00;;;8.40;;
4462;SDS011;2244;50.200;8.220;2024-01-30T13:44:47;27.20;;;8.47;;
4462;SDS011;2244;50.200;8.220;2024-01-30T13:47:14;31.87;;;8.50;;
4462;SDS011;2244;50.200;8.220;2024-01-30T13:49:42;34.90;;;8.30;;
4462;SDS011;2244;50.200;8.220;2024-01-30T13:52:09;26.40;;;7.73;;
4462;SDS011;2244;50.200;8.220;2024-01-30T13:54:37;27.70;;;8.13;;
4462;SDS011;2244;50.200;8.220;2024-01-30T13:57:05;30.97;;;8.90;;
4462;SDS011;2244;50.200;8.220;2024-01-30T13:59:34;31.30;;;8.40;;
4462;SDS011;2244;50.200;8.220;2024-01-30T14:02:03;32.63;;;8.57;;
4462;SDS011;2244;50.200;8.220;2024-01-30T14:04:30;30.77;;;9.73;;
4462;SDS011;2244;50.200;8.220;2024-01-30T14:06:58;29.30;;;8.70;;
4462;SDS011;2244;50.200;8.220;2024-01-30T14:09:28;30.90;;;8.93;;
4462;SDS011;2244;50.200;8.220;2024-01-30T14:11:56;28.40;;;9.07;;
4462;SDS011;2244;50.200;8.220;2024-01-30T14:14:24;26.87;;;8.40;;
4462;SDS011;2244;50.200;8.220;2024-01-30T14:16:51;32.00;;;9.33;;
4462;SDS011;2244;50.200;8.220;2024-01-30T14:19:19;32.37;;;9.27;;
4462;SDS011;2244;50.200;8.220;2024-01-30T14:21:49;30.87;;;9.63;;
4462;SDS011;2244;50.200;8.220;2024-01-30T14:24:17;29.43;;;9.30;;
4462;SDS011;2244;50.200;8.220;2024-01-30T14:26:48;28.90;;;9.13;;
4462;SDS011;2244;50.200;8.220;2024-01-30T14:29:15;27.80;;;9.07;;
4462;SDS011;2244;50.200;8.220;2024-01-30T14:31:43;28.27;;;9.27;;
4462;SDS011;2244;50.200;8.220;2024-01-30T14:34:10;28.47;;;9.00;;
4462;SDS011;2244;50.200;8.220;2024-01-30T14:36:39;29.60;;;9.00;;
4462;SDS011;2244;50.200;8.220;2024-01-30T14:39:07;29.80;;;9.57;;
4462;SDS011;2244;50.200;8.220;2024-01-30T14:41:34;29.70;;;9.13;;
4462;SDS011;2244;50.200;8.220;2024-01-30T14:44:02;29.90;;;8.93;;
4462;SDS011;2244;50.200;8.220;2024-01-30T14:46:33;29.77;;;9.90;;
4462;SDS011;2244;50.200;8.220;2024-01-30T14:49:00;33.87;;;8.73;;
4462;SDS011;2244;50.200;8.220;2024-01-30T14:51:30;30.23;;;9.23;;
4462;SDS011;2244;50.200;8.220;2024-01-30T14:53:57;28.90;;;9.13;;
4462;SDS011;2244;50.200;8.220;2024-01-30T14:56:25;29.33;;;9.00;;
4462;SDS011;2244;50.200;8.220;2024-01-30T14:58:53;29.17;;;9.90;;
4462;SDS011;2244;50.200;8.220;2024-01-30T15:01:21;29.20;;;9.43;;
4462;SDS011;2244;50.200;8.220;2024-01-30T15:03:48;31.23;;;9.37;;
4462;SDS011;2244;50.200;8.220;2024-01-30T15:06:18;28.30;;;9.00;;
4462;SDS011;2244;50.200;8.220;2024-01-30T15:08:46;33.67;;;10.93;;
4462;SDS011;2244;50.200;8.220;2024-01-30T15:11:14;30.60;;;10.10;;
4462;SDS011;2244;50.200;8.220;2024-01-30T15:13:43;30.60;;;11.13;;
4462;SDS011;2244;50.200;8.220;2024-01-30T15:16:11;31.77;;;10.23;;
4462;SDS011;2244;50.200;8.220;2024-01-30T15:18:41;32.50;;;10.73;;